Time;durP1;ratioP1;P1;durP2;ratioP2;P2;SDS_P1;SDS_P2;PMS_P1;PMS_P2;Temp;Humidity;BMP_temperature;BMP_pressure;BME280_temperature;BME280_humidity;BME280_pressure;Samples;Min_cycle;Max_cycle;Signal;HPM_P1;HPM_P2
2020/12/21 00:01:56;;;;;;;11.95;3.95;;;7.50;99.90;;;;;;4988842;28;20022;-77
2020/12/21 00:04:22;;;;;;;13.48;4.53;;;7.50;99.90;;;;;;4991374;28;20026;-76
2020/12/21 00:06:58;;;;;;;12.10;4.93;;;7.50;99.90;;;;;;4992292;28;20026;-77
2020/12/21 00:09:24;;;;;;;14.20;4.30;;;7.50;99.90;;;;;;4989586;28;20038;-76
2020/12/21 00:11:50;;;;;;;19.42;5.13;;;7.40;99.90;;;;;;4992015;28;20054;-76
2020/12/21 00:14:17;;;;;;;13.32;4.00;;;7.50;99.90;;;;;;4994980;28;20070;-76
2020/12/21 00:16:48;;;;;;;11.48;4.35;;;7.40;99.90;;;;;;4992038;28;20078;-77
2020/12/21 00:19:18;;;;;;;16.25;4.82;;;7.40;99.90;;;;;;4991274;28;20062;-76
2020/12/21 00:21:44;;;;;;;11.35;4.25;;;7.40;99.90;;;;;;4993154;28;20394;-77
2020/12/21 00:24:10;;;;;;;9.00;3.58;;;7.40;99.90;;;;;;4998048;28;20026;-77
2020/12/21 00:26:36;;;;;;;11.18;3.83;;;7.40;99.90;;;;;;4995319;28;20034;-77
2020/12/21 00:29:01;;;;;;;11.48;4.63;;;7.40;99.90;;;;;;4995895;28;20026;-77
2020/12/21 00:31:29;;;;;;;14.57;4.25;;;7.30;99.90;;;;;;4998008;28;20037;-77
2020/12/21 00:33:56;;;;;;;12.57;4.45;;;7.30;99.90;;;;;;5005466;28;20015;-77
2020/12/21 00:36:22;;;;;;;8.35;3.20;;;7.30;99.90;;;;;;5006255;28;20023;-77
2020/12/21 00:38:48;;;;;;;13.35;3.65;;;7.30;99.90;;;;;;5009650;28;20069;-77
2020/12/21 00:41:17;;;;;;;13.32;3.63;;;7.30;99.90;;;;;;5006312;28;20441;-77
2020/12/21 00:43:45;;;;;;;12.32;3.45;;;7.40;99.90;;;;;;4998395;28;20442;-77
2020/12/21 00:46:23;;;;;;;9.02;3.20;;;7.30;99.90;;;;;;4996652;28;20029;-76
2020/12/21 00:48:50;;;;;;;18.75;5.18;;;7.30;99.90;;;;;;4993071;28;20045;-76
2020/12/21 00:51:16;;;;;;;16.33;4.15;;;7.30;99.90;;;;;;4993045;28;20041;-76
2020/12/21 00:53:44;;;;;;;11.45;3.35;;;7.30;99.90;;;;;;4994681;28;20023;-77
2020/12/21 00:56:10;;;;;;;16.67;5.40;;;7.20;99.90;;;;;;4991555;28;20069;-76
2020/12/21 00:58:37;;;;;;;11.05;3.67;;;7.20;99.90;;;;;;4989131;28;20395;-76
2020/12/21 01:01:12;;;;;;;17.27;3.35;;;7.20;99.90;;;;;;4990827;28;20383;-77
2020/12/21 01:03:37;;;;;;;19.92;5.32;;;7.40;99.90;;;;;;4994111;28;20094;-76
2020/12/21 01:06:04;;;;;;;9.05;4.38;;;7.30;99.90;;;;;;4993744;28;20510;-77
2020/12/21 01:08:30;;;;;;;17.20;3.10;;;7.30;99.90;;;;;;4985515;28;20038;-77
2020/12/21 01:10:56;;;;;;;8.98;3.35;;;7.30;99.90;;;;;;4992599;28;20038;-76
2020/12/21 01:13:21;;;;;;;9.13;2.85;;;7.30;99.90;;;;;;4990501;28;20057;-78
2020/12/21 01:15:47;;;;;;;18.00;3.42;;;7.30;99.90;;;;;;4993737;28;20045;-78
2020/12/21 01:18:12;;;;;;;11.82;4.40;;;7.20;99.90;;;;;;4992608;28;20073;-78
2020/12/21 01:20:40;;;;;;;22.02;3.42;;;7.20;99.90;;;;;;4992429;28;20031;-77
2020/12/21 01:23:06;;;;;;;12.15;2.92;;;7.20;99.90;;;;;;4990154;28;20117;-78
2020/12/21 01:25:32;;;;;;;15.43;3.28;;;7.20;99.90;;;;;;4990783;28;20132;-77
2020/12/21 01:27:57;;;;;;;12.82;3.60;;;7.10;99.90;;;;;;4993094;28;20037;-78
2020/12/21 01:30:23;;;;;;;14.30;4.25;;;7.10;99.90;;;;;;4992328;28;20137;-78
2020/12/21 01:32:48;;;;;;;12.32;3.05;;;7.10;99.90;;;;;;4993125;28;20026;-78
2020/12/21 01:35:15;;;;;;;14.50;3.78;;;7.10;99.90;;;;;;4991226;28;20034;-78
2020/12/21 01:37:41;;;;;;;9.02;2.70;;;7.10;99.90;;;;;;4988834;28;20039;-78
2020/12/21 01:40:07;;;;;;;10.82;3.30;;;7.10;99.90;;;;;;4989481;28;20038;-78
2020/12/21 01:42:33;;;;;;;16.00;3.70;;;7.10;99.90;;;;;;4992436;28;20037;-78
2020/12/21 01:44:59;;;;;;;9.95;3.63;;;7.10;99.90;;;;;;4990825;28;20069;-78
2020/12/21 01:47:25;;;;;;;13.57;4.10;;;7.00;99.90;;;;;;4989052;28;20478;-78
2020/12/21 01:49:51;;;;;;;10.48;3.88;;;7.00;99.90;;;;;;4991991;28;20029;-78
2020/12/21 01:52:18;;;;;;;8.45;3.60;;;7.00;99.90;;;;;;4989128;28;20510;-78
2020/12/21 01:54:45;;;;;;;15.80;4.38;;;7.00;99.90;;;;;;4987209;28;20046;-78
2020/12/21 01:57:10;;;;;;;21.90;3.95;;;7.10;99.90;;;;;;4992801;28;20038;-78
2020/12/21 01:59:36;;;;;;;10.95;3.00;;;7.00;99.90;;;;;;4993202;28;20034;-78
2020/12/21 02:02:02;;;;;;;10.93;3.97;;;7.00;99.90;;;;;;4986477;28;20031;-78
2020/12/21 02:04:28;;;;;;;8.38;3.30;;;7.00;99.90;;;;;;4992098;28;20463;-78
2020/12/21 02:06:56;;;;;;;20.20;3.67;;;6.90;99.90;;;;;;4990371;28;20049;-79
2020/12/21 02:09:22;;;;;;;8.65;2.67;;;7.00;99.90;;;;;;4986678;28;20113;-78
2020/12/21 02:11:48;;;;;;;13.57;3.75;;;6.90;99.90;;;;;;4990302;28;20176;-79
2020/12/21 02:14:15;;;;;;;21.33;4.90;;;6.90;99.90;;;;;;4991086;28;20057;-78
2020/12/21 02:16:40;;;;;;;13.55;4.00;;;7.00;99.90;;;;;;4991881;28;20102;-78
2020/12/21 02:19:06;;;;;;;11.85;2.75;;;7.00;99.90;;;;;;4991224;28;20521;-78
2020/12/21 02:21:31;;;;;;;22.80;4.07;;;7.00;99.90;;;;;;4993720;28;20037;-78
2020/12/21 02:23:58;;;;;;;6.55;2.75;;;7.00;99.90;;;;;;4991249;28;20038;-78
2020/12/21 02:26:24;;;;;;;15.85;3.22;;;6.90;99.90;;;;;;4992026;28;20042;-78
2020/12/21 02:28:55;;;;;;;6.38;2.70;;;6.90;99.90;;;;;;5007020;28;20026;-78
2020/12/21 02:31:21;;;;;;;8.65;2.80;;;6.90;99.90;;;;;;5004294;28;20034;-78
2020/12/21 02:33:47;;;;;;;20.48;3.08;;;6.80;99.90;;;;;;5009661;28;20475;-78
2020/12/21 02:36:13;;;;;;;8.68;3.80;;;6.80;99.90;;;;;;5012214;28;20030;-78
2020/12/21 02:38:40;;;;;;;21.08;4.22;;;6.90;99.90;;;;;;5008527;28;20017;-78
2020/12/21 02:41:06;;;;;;;15.90;3.85;;;6.90;99.90;;;;;;5010712;28;20290;-79
2020/12/21 02:43:31;;;;;;;15.85;4.38;;;6.90;99.90;;;;;;5014775;28;20010;-79
2020/12/21 02:45:57;;;;;;;16.55;3.15;;;6.90;99.90;;;;;;5012405;28;20030;-78
2020/12/21 02:48:23;;;;;;;14.82;4.07;;;6.90;99.90;;;;;;5001930;28;20046;-78
2020/12/21 02:50:48;;;;;;;15.77;3.72;;;6.90;99.90;;;;;;5000974;28;20058;-78
2020/12/21 02:53:15;;;;;;;8.75;3.00;;;6.80;99.90;;;;;;4999650;28;20403;-79
2020/12/21 02:55:41;;;;;;;11.45;3.42;;;6.80;99.90;;;;;;4998631;28;20026;-78
2020/12/21 02:58:06;;;;;;;9.02;3.25;;;6.80;99.90;;;;;;4996976;28;20049;-78
2020/12/21 03:00:34;;;;;;;15.30;2.80;;;6.80;99.90;;;;;;4996631;28;20050;-78
2020/12/21 03:03:03;;;;;;;8.57;3.35;;;6.80;99.90;;;;;;4992533;28;20042;-78
2020/12/21 03:05:30;;;;;;;15.23;3.05;;;6.80;99.90;;;;;;4996465;28;20062;-79
2020/12/21 03:07:56;;;;;;;10.50;3.17;;;6.70;99.90;;;;;;4997845;28;20102;-78
2020/12/21 03:10:22;;;;;;;14.40;3.55;;;6.70;99.90;;;;;;4994794;28;20026;-78
2020/12/21 03:12:47;;;;;;;11.85;3.50;;;6.70;99.90;;;;;;4990328;28;20025;-78
2020/12/21 03:15:13;;;;;;;13.40;3.83;;;6.70;99.90;;;;;;4990009;28;20472;-77
2020/12/21 03:17:39;;;;;;;16.55;4.20;;;6.70;99.90;;;;;;4996003;28;20042;-77
2020/12/21 03:20:05;;;;;;;15.05;3.38;;;6.70;99.90;;;;;;4991311;28;20030;-78
2020/12/21 03:22:30;;;;;;;16.92;3.25;;;6.60;99.90;;;;;;4994047;28;20124;-78
2020/12/21 03:24:57;;;;;;;15.13;4.55;;;6.70;99.90;;;;;;4994070;28;20026;-78
2020/12/21 03:27:23;;;;;;;16.25;3.20;;;6.70;99.90;;;;;;4990087;28;20105;-78
2020/12/21 03:29:49;;;;;;;19.35;3.75;;;6.60;99.90;;;;;;4996514;28;20478;-78
2020/12/21 03:32:15;;;;;;;11.25;3.50;;;6.60;99.90;;;;;;4992362;28;20041;-78
2020/12/21 03:34:40;;;;;;;18.88;4.70;;;6.60;99.90;;;;;;4994550;28;20070;-78
2020/12/21 03:37:06;;;;;;;13.77;2.95;;;6.60;99.90;;;;;;4993666;28;20015;-77
2020/12/21 03:39:32;;;;;;;19.05;3.75;;;6.60;99.90;;;;;;4994733;28;20038;-78
2020/12/21 03:41:57;;;;;;;15.05;2.92;;;6.60;99.90;;;;;;4994940;28;20034;-78
2020/12/21 03:44:23;;;;;;;13.23;2.88;;;6.60;99.90;;;;;;4995667;28;20125;-78
2020/12/21 03:46:49;;;;;;;10.55;3.42;;;6.60;99.90;;;;;;4994861;28;20030;-78
2020/12/21 03:49:14;;;;;;;9.98;3.75;;;6.70;99.90;;;;;;4993785;28;20059;-78
2020/12/21 03:51:40;;;;;;;13.35;3.70;;;6.70;99.90;;;;;;4994805;28;20026;-78
2020/12/21 03:54:06;;;;;;;8.35;3.92;;;6.70;99.90;;;;;;4991171;28;20026;-78
2020/12/21 03:56:31;;;;;;;9.52;2.67;;;6.70;99.90;;;;;;4996195;28;20022;-78
2020/12/21 03:58:57;;;;;;;13.30;3.78;;;6.70;99.90;;;;;;4990613;28;20129;-78
2020/12/21 04:01:22;;;;;;;12.18;3.22;;;6.70;99.90;;;;;;4994144;28;20026;-78
2020/12/21 04:03:48;;;;;;;12.65;3.50;;;6.60;99.90;;;;;;4995921;28;20471;-78
2020/12/21 04:06:13;;;;;;;23.38;4.28;;;6.50;99.90;;;;;;4992353;28;20486;-78
2020/12/21 04:08:39;;;;;;;15.10;4.80;;;6.50;99.90;;;;;;4991217;28;20092;-78
2020/12/21 04:11:06;;;;;;;8.60;3.13;;;6.50;99.90;;;;;;4988771;28;20471;-78
2020/12/21 04:13:32;;;;;;;13.18;3.25;;;6.50;99.90;;;;;;4988482;28;20021;-78
2020/12/21 04:15:57;;;;;;;17.52;3.55;;;6.50;99.90;;;;;;4994096;28;20081;-78
2020/12/21 04:18:23;;;;;;;12.07;3.53;;;6.50;99.90;;;;;;4992309;28;20420;-78
2020/12/21 04:20:49;;;;;;;15.45;3.15;;;6.50;99.90;;;;;;4994240;28;20034;-78
2020/12/21 04:23:14;;;;;;;14.82;3.72;;;6.50;99.90;;;;;;4994944;28;20037;-78
2020/12/21 04:25:40;;;;;;;13.27;3.85;;;6.40;99.90;;;;;;4994703;28;20022;-77
2020/12/21 04:28:06;;;;;;;9.48;3.20;;;6.50;99.90;;;;;;4991776;28;20039;-77
2020/12/21 04:30:32;;;;;;;10.55;3.10;;;6.50;99.90;;;;;;5000770;28;20026;-77
2020/12/21 04:32:57;;;;;;;14.55;4.25;;;6.50;99.90;;;;;;5009157;28;20025;-77
2020/12/21 04:35:23;;;;;;;19.13;4.50;;;6.50;99.90;;;;;;5010531;28;20037;-78
2020/12/21 04:37:50;;;;;;;10.93;4.10;;;6.50;99.90;;;;;;5013431;28;20006;-79
2020/12/21 04:40:16;;;;;;;9.27;3.47;;;6.50;99.90;;;;;;5009260;28;20057;-79
2020/12/21 04:42:53;;;;;;;10.15;3.63;;;6.60;99.90;;;;;;5014831;28;20333;-79
2020/12/21 04:45:19;;;;;;;15.32;4.18;;;6.50;99.90;;;;;;5015003;28;20053;-79
2020/12/21 04:47:45;;;;;;;15.60;4.50;;;6.50;99.90;;;;;;5013909;28;20014;-79
2020/12/21 04:50:13;;;;;;;9.95;3.55;;;6.50;99.90;;;;;;5007993;28;20046;-78
2020/12/21 04:52:50;;;;;;;22.48;4.03;;;6.50;99.90;;;;;;5003066;28;20392;-78
2020/12/21 04:55:21;;;;;;;13.30;4.18;;;6.60;99.90;;;;;;4999457;28;20042;-78
2020/12/21 04:57:54;;;;;;;11.25;3.80;;;6.60;99.90;;;;;;4996518;28;20026;-79
2020/12/21 05:00:20;;;;;;;17.90;3.90;;;6.70;99.90;;;;;;5026228;28;20498;-78
2020/12/21 05:02:45;;;;;;;10.10;3.95;;;6.70;99.90;;;;;;4991186;28;20023;-77
2020/12/21 05:05:11;;;;;;;10.98;3.50;;;6.70;99.90;;;;;;4995267;28;20101;-78
2020/12/21 05:07:36;;;;;;;8.07;3.35;;;6.70;99.90;;;;;;4992658;28;20036;-78
2020/12/21 05:10:08;;;;;;;19.42;4.22;;;6.70;99.90;;;;;;4992525;28;20022;-78
2020/12/21 05:12:35;;;;;;;15.95;3.83;;;6.70;99.90;;;;;;4994164;28;20049;-78
2020/12/21 05:15:15;;;;;;;11.10;3.47;;;6.70;99.90;;;;;;4989696;28;20576;-78
2020/12/21 05:17:40;;;;;;;12.13;3.28;;;6.70;99.90;;;;;;4992916;28;20528;-77
2020/12/21 05:20:06;;;;;;;18.55;3.40;;;6.80;99.90;;;;;;4988541;28;20053;-78
2020/12/21 05:22:32;;;;;;;17.75;3.17;;;6.80;99.90;;;;;;4989006;28;20030;-78
2020/12/21 05:25:08;;;;;;;20.27;3.78;;;6.80;99.90;;;;;;4992933;28;20038;-78
2020/12/21 05:27:34;;;;;;;10.98;2.92;;;6.80;99.90;;;;;;4990846;28;20026;-77
2020/12/21 05:30:03;;;;;;;10.43;3.50;;;6.80;99.90;;;;;;4988375;28;20415;-77
2020/12/21 05:32:28;;;;;;;19.58;4.47;;;6.80;99.90;;;;;;4994282;28;20072;-77
2020/12/21 05:35:07;;;;;;;10.00;4.05;;;6.80;99.90;;;;;;4993809;28;20414;-77
2020/12/21 05:37:37;;;;;;;18.52;3.90;;;6.80;99.90;;;;;;4989679;28;20471;-78
2020/12/21 05:40:04;;;;;;;13.70;3.95;;;6.80;99.90;;;;;;4991846;28;20034;-78
2020/12/21 05:42:29;;;;;;;12.50;3.38;;;6.80;99.90;;;;;;4993048;28;20033;-77
2020/12/21 05:45:06;;;;;;;15.93;3.38;;;6.80;99.90;;;;;;4992255;28;20478;-77
2020/12/21 05:47:33;;;;;;;20.25;4.13;;;6.80;99.90;;;;;;4987980;28;20019;-78
2020/12/21 05:50:02;;;;;;;14.05;3.70;;;6.80;99.90;;;;;;4991382;28;20022;-78
2020/12/21 05:52:36;;;;;;;16.73;3.47;;;6.80;99.90;;;;;;4990911;28;20035;-78
2020/12/21 05:55:04;;;;;;;15.15;3.70;;;6.90;99.90;;;;;;4989715;28;20023;-77
2020/12/21 05:57:30;;;;;;;;;;;6.90;99.90;;;;;;4993377;28;20030;-77
2020/12/21 05:59:57;;;;;;;10.52;3.38;;;6.90;99.90;;;;;;4991743;28;19920;-77
2020/12/21 06:02:24;;;;;;;13.68;3.78;;;7.00;99.90;;;;;;4987528;28;20041;-79
2020/12/21 06:04:49;;;;;;;10.43;3.60;;;7.00;99.90;;;;;;4990254;28;20478;-78
2020/12/21 06:07:22;;;;;;;11.05;2.90;;;6.90;99.90;;;;;;4990820;28;20117;-77
2020/12/21 06:09:50;;;;;;;8.88;2.95;;;6.90;99.90;;;;;;4992429;28;20039;-78
2020/12/21 06:12:21;;;;;;;8.95;3.25;;;6.90;99.90;;;;;;4992065;28;20029;-78
2020/12/21 06:14:50;;;;;;;13.35;3.45;;;7.00;99.90;;;;;;4991571;28;20096;-78
2020/12/21 06:17:16;;;;;;;22.70;4.22;;;6.90;99.90;;;;;;4993099;28;20046;-78
2020/12/21 06:19:42;;;;;;;15.15;3.17;;;6.90;99.90;;;;;;4987135;28;20042;-78
2020/12/21 06:22:08;;;;;;;11.43;2.80;;;6.90;99.90;;;;;;4992342;28;20489;-78
2020/12/21 06:24:38;;;;;;;10.80;3.10;;;6.90;99.90;;;;;;4991905;28;20527;-78
2020/12/21 06:27:14;;;;;;;12.52;3.30;;;6.90;99.90;;;;;;4989232;28;20057;-78
2020/12/21 06:29:40;;;;;;;12.45;3.10;;;6.90;99.90;;;;;;4986600;28;20089;-78
2020/12/21 06:32:07;;;;;;;9.73;3.13;;;6.90;99.90;;;;;;4989437;28;20042;-78
2020/12/21 06:34:36;;;;;;;12.52;3.45;;;6.80;99.90;;;;;;4991644;28;20073;-77
2020/12/21 06:37:16;;;;;;;7.88;2.83;;;6.80;99.90;;;;;;4996560;28;20023;-77
2020/12/21 06:39:42;;;;;;;12.48;2.60;;;6.80;99.90;;;;;;5005612;28;20015;-77
2020/12/21 06:42:13;;;;;;;12.45;2.63;;;6.90;99.90;;;;;;5006006;28;20035;-77
2020/12/21 06:44:40;;;;;;;11.15;2.80;;;6.90;99.90;;;;;;5010825;28;20014;-79
2020/12/21 06:47:10;;;;;;;18.23;3.15;;;6.80;99.90;;;;;;5004519;28;20027;-77
2020/12/21 06:49:37;;;;;;;9.15;2.55;;;6.80;99.90;;;;;;4994289;28;20113;-77
2020/12/21 06:52:03;;;;;;;12.18;3.80;;;6.80;99.90;;;;;;4998151;28;20557;-78
2020/12/21 06:54:30;;;;;;;8.48;3.65;;;6.80;99.90;;;;;;5000120;28;20029;-77
2020/12/21 06:56:55;;;;;;;13.55;3.30;;;6.80;99.90;;;;;;4993744;28;20570;-77
2020/12/21 06:59:22;;;;;;;12.48;3.35;;;6.80;99.90;;;;;;4996678;28;20112;-77
2020/12/21 07:01:50;;;;;;;12.95;2.65;;;6.80;99.90;;;;;;4992640;28;21223;-78
2020/12/21 07:04:18;;;;;;;17.58;3.50;;;6.80;99.90;;;;;;4989084;28;20077;-78
2020/12/21 07:06:44;;;;;;;10.57;2.97;;;6.80;99.90;;;;;;4995378;28;20042;-77
2020/12/21 07:09:15;;;;;;;9.63;2.97;;;6.80;99.90;;;;;;4994840;28;20041;-77
2020/12/21 07:11:42;;;;;;;16.25;3.03;;;6.90;99.90;;;;;;4993647;28;20065;-79
2020/12/21 07:14:08;;;;;;;12.65;2.78;;;7.00;99.90;;;;;;4989508;28;20027;-77
2020/12/21 07:16:34;;;;;;;10.45;3.08;;;7.00;99.90;;;;;;4993391;28;20050;-77
2020/12/21 07:19:00;;;;;;;10.38;2.72;;;7.10;99.90;;;;;;4989343;28;20019;-78
2020/12/21 07:21:25;;;;;;;20.05;3.10;;;7.00;99.90;;;;;;4994972;28;20463;-78
2020/12/21 07:23:51;;;;;;;9.18;2.50;;;7.00;99.90;;;;;;4987904;28;20494;-78
2020/12/21 07:26:17;;;;;;;19.60;3.10;;;7.10;99.90;;;;;;4993196;28;20031;-78
2020/12/21 07:28:47;;;;;;;8.52;3.15;;;7.20;99.90;;;;;;4988501;28;20382;-77
2020/12/21 07:31:22;;;;;;;14.98;2.85;;;7.10;99.90;;;;;;4987994;28;20471;-77
2020/12/21 07:33:59;;;;;;;6.80;2.47;;;7.20;99.90;;;;;;4986053;28;20471;-78
2020/12/21 07:36:30;;;;;;;11.88;2.55;;;7.30;99.90;;;;;;4990337;28;20462;-78
2020/12/21 07:39:17;;;;;;;15.80;3.30;;;7.30;99.90;;;;;;4994668;28;20039;-79
2020/12/21 07:41:51;;;;;;;7.37;2.47;;;7.30;99.90;;;;;;5001263;28;20041;-79
2020/12/21 07:44:28;;;;;;;13.02;3.55;;;7.30;99.90;;;;;;4992869;28;20106;-78
2020/12/21 07:47:00;;;;;;;9.68;2.42;;;7.30;99.90;;;;;;4983492;28;20403;-79
2020/12/21 07:49:26;;;;;;;8.07;2.72;;;7.40;99.90;;;;;;4989170;28;20030;-78
2020/12/21 07:51:58;;;;;;;11.30;3.22;;;7.40;99.90;;;;;;4985768;28;20082;-78
2020/12/21 07:54:26;;;;;;;9.27;3.05;;;7.40;99.90;;;;;;4990443;28;20027;-78
2020/12/21 07:57:02;;;;;;;11.40;3.05;;;7.40;99.90;;;;;;4988038;28;20042;-79
2020/12/21 07:59:28;;;;;;;11.45;4.35;;;7.40;99.90;;;;;;4983471;28;20109;-78
2020/12/21 08:02:02;;;;;;;13.93;2.88;;;7.40;99.90;;;;;;4989002;28;20506;-78
2020/12/21 08:04:28;;;;;;;13.48;3.25;;;7.40;99.90;;;;;;5010492;28;20027;-79
2020/12/21 08:07:03;;;;;;;12.63;3.10;;;7.50;99.90;;;;;;5000651;28;20046;-78
2020/12/21 08:09:29;;;;;;;13.02;3.60;;;7.50;99.90;;;;;;4999786;28;20512;-79
2020/12/21 08:11:57;;;;;;;14.65;3.55;;;7.60;99.90;;;;;;4997524;28;20136;-79
2020/12/21 08:14:23;;;;;;;15.70;4.22;;;7.70;99.90;;;;;;4996793;28;20026;-79
2020/12/21 08:16:48;;;;;;;8.85;3.92;;;7.70;99.90;;;;;;5001913;28;20038;-79
2020/12/21 08:19:20;;;;;;;9.32;3.35;;;7.80;99.90;;;;;;5003168;28;20022;-78
2020/12/21 08:21:46;;;;;;;12.68;3.50;;;7.80;99.90;;;;;;4990745;28;20053;-79
2020/12/21 08:24:12;;;;;;;8.50;2.97;;;7.90;99.90;;;;;;4993736;28;20513;-79
2020/12/21 08:26:38;;;;;;;11.60;3.78;;;7.80;99.90;;;;;;4991668;28;20046;-79
2020/12/21 08:29:05;;;;;;;14.52;3.83;;;7.90;99.90;;;;;;4994510;28;20372;-79
2020/12/21 08:31:31;;;;;;;13.18;3.38;;;8.00;99.90;;;;;;4992559;28;20434;-78
2020/12/21 08:34:03;;;;;;;13.65;4.38;;;8.00;99.90;;;;;;4991810;28;20026;-79
2020/12/21 08:36:31;;;;;;;9.45;3.80;;;8.00;99.90;;;;;;4997071;28;20077;-80
2020/12/21 08:39:12;;;;;;;15.90;4.22;;;8.00;99.90;;;;;;4996458;28;20089;-78
2020/12/21 08:41:50;;;;;;;12.18;4.15;;;8.00;99.90;;;;;;5001139;28;20031;-79
2020/12/21 08:44:23;;;;;;;10.20;4.53;;;8.00;99.90;;;;;;5009548;28;20506;-79
2020/12/21 08:46:54;;;;;;;14.07;4.50;;;8.10;99.90;;;;;;5013319;28;20022;-79
2020/12/21 08:49:20;;;;;;;10.63;4.43;;;8.10;99.90;;;;;;5001336;28;20034;-79
2020/12/21 08:51:46;;;;;;;13.60;4.88;;;8.10;99.90;;;;;;5010139;28;20050;-80
2020/12/21 08:54:12;;;;;;;9.32;4.85;;;8.10;99.90;;;;;;5010142;28;20010;-79
2020/12/21 08:56:38;;;;;;;14.85;5.43;;;8.10;99.90;;;;;;5011750;28;20066;-79
2020/12/21 08:59:03;;;;;;;12.50;4.55;;;8.20;99.90;;;;;;5010042;28;20046;-80
2020/12/21 09:01:29;;;;;;;6.63;3.90;;;8.20;99.90;;;;;;5009689;28;20039;-79
2020/12/21 09:03:55;;;;;;;15.50;5.68;;;8.30;99.90;;;;;;4996057;28;20044;-79
2020/12/21 09:06:23;;;;;;;19.65;4.78;;;8.30;99.90;;;;;;5002307;28;20025;-79
2020/12/21 09:08:50;;;;;;;14.18;4.38;;;8.30;99.90;;;;;;4997481;28;20034;-78
2020/12/21 09:11:22;;;;;;;14.43;4.63;;;8.40;99.90;;;;;;4992942;28;20040;-78
2020/12/21 09:13:48;;;;;;;16.60;4.80;;;8.40;99.90;;;;;;4995715;28;20052;-79
2020/12/21 09:16:24;;;;;;;15.98;4.20;;;8.50;99.90;;;;;;4994496;28;20046;-80
2020/12/21 09:18:54;;;;;;;10.32;4.93;;;8.50;99.90;;;;;;4993960;28;20478;-79
2020/12/21 09:21:26;;;;;;;8.25;4.18;;;8.50;99.90;;;;;;4992828;28;20042;-79
2020/12/21 09:23:54;;;;;;;8.77;4.45;;;8.50;99.90;;;;;;4991018;28;20390;-79
2020/12/21 09:26:20;;;;;;;11.18;3.92;;;8.50;99.90;;;;;;4989534;28;20105;-80
2020/12/21 09:28:47;;;;;;;18.88;4.60;;;8.50;99.90;;;;;;4988468;28;20101;-79
2020/12/21 09:31:13;;;;;;;16.73;5.43;;;8.50;99.90;;;;;;4992942;28;20035;-79
2020/12/21 09:33:39;;;;;;;12.82;4.32;;;8.50;99.90;;;;;;4994665;28;20026;-79
2020/12/21 09:36:06;;;;;;;22.92;5.50;;;8.50;99.90;;;;;;4994017;28;20034;-79
2020/12/21 09:38:32;;;;;;;17.10;4.97;;;8.50;99.90;;;;;;4991884;28;20085;-80
2020/12/21 09:40:58;;;;;;;8.10;4.20;;;8.50;99.90;;;;;;4991536;28;20030;-79
2020/12/21 09:43:23;;;;;;;13.27;4.78;;;8.50;99.90;;;;;;4981679;28;20049;-79
2020/12/21 09:45:49;;;;;;;12.05;4.05;;;8.50;99.90;;;;;;4992727;28;20037;-80
2020/12/21 09:48:15;;;;;;;14.40;4.50;;;8.40;99.90;;;;;;4991841;28;20372;-80
2020/12/21 09:50:40;;;;;;;5.15;3.63;;;8.40;99.90;;;;;;4993450;28;20088;-79
2020/12/21 09:53:06;;;;;;;8.93;4.35;;;8.30;99.90;;;;;;4996799;28;20493;-79
2020/12/21 09:55:32;;;;;;;14.73;4.53;;;8.30;99.90;;;;;;4991767;28;20022;-80
2020/12/21 09:57:57;;;;;;;18.58;4.72;;;8.40;99.90;;;;;;5003800;28;20073;-80
2020/12/21 10:00:23;;;;;;;7.50;4.03;;;8.30;99.90;;;;;;4996171;28;20033;-81
2020/12/21 10:02:48;;;;;;;15.02;4.63;;;8.30;99.90;;;;;;4991082;28;20027;-81
2020/12/21 10:05:15;;;;;;;14.70;4.20;;;8.30;99.90;;;;;;4990229;28;20015;-81
2020/12/21 10:07:41;;;;;;;13.65;3.33;;;8.20;99.90;;;;;;4995014;28;20027;-81
2020/12/21 10:10:07;;;;;;;19.67;4.70;;;8.30;99.90;;;;;;4996457;28;20533;-81
2020/12/21 10:12:32;;;;;;;10.10;4.15;;;8.30;99.90;;;;;;4994789;28;20137;-82
2020/12/21 10:14:58;;;;;;;15.35;4.72;;;8.40;99.90;;;;;;4993302;28;20038;-82
2020/12/21 10:17:23;;;;;;;15.20;4.93;;;8.40;99.90;;;;;;5008118;28;20054;-78
2020/12/21 10:19:49;;;;;;;6.55;3.92;;;8.40;99.90;;;;;;4998812;28;20034;-81
2020/12/21 10:22:15;;;;;;;13.20;4.10;;;8.30;99.90;;;;;;4979883;28;20023;-82
2020/12/21 10:24:41;;;;;;;9.77;4.47;;;8.30;99.90;;;;;;4976847;28;20151;-82
2020/12/21 10:27:07;;;;;;;11.20;4.43;;;8.30;99.90;;;;;;4993772;28;20027;-82
2020/12/21 10:29:32;;;;;;;12.45;3.85;;;8.20;99.90;;;;;;4996661;28;20041;-79
2020/12/21 10:31:59;;;;;;;12.13;4.13;;;8.20;99.90;;;;;;4991286;28;20025;-79
2020/12/21 10:34:25;;;;;;;8.75;3.53;;;8.20;99.90;;;;;;4996104;28;20201;-79
2020/12/21 10:36:52;;;;;;;13.57;4.18;;;8.20;99.90;;;;;;4995645;28;20498;-79
2020/12/21 10:39:18;;;;;;;19.55;3.60;;;8.20;99.90;;;;;;4994820;28;20463;-80
2020/12/21 10:41:44;;;;;;;22.38;4.75;;;8.20;99.90;;;;;;4994632;28;20479;-80
2020/12/21 10:44:09;;;;;;;12.57;4.78;;;8.20;99.90;;;;;;4995718;28;20046;-80
2020/12/21 10:46:35;;;;;;;10.95;3.78;;;8.20;99.90;;;;;;4994626;28;20026;-80
2020/12/21 10:49:02;;;;;;;11.57;3.67;;;8.20;99.90;;;;;;4988205;28;20038;-80
2020/12/21 10:51:29;;;;;;;38.05;4.20;;;8.20;99.90;;;;;;5002642;28;20018;-81
2020/12/21 10:53:55;;;;;;;10.82;3.97;;;8.30;99.90;;;;;;5008862;28;20121;-81
2020/12/21 10:56:22;;;;;;;13.77;3.47;;;8.30;99.90;;;;;;4997521;28;20038;-81
2020/12/21 10:58:48;;;;;;;4.72;2.95;;;8.30;99.90;;;;;;5014453;28;20023;-81
2020/12/21 11:01:15;;;;;;;13.45;3.80;;;8.30;99.90;;;;;;5012937;28;20039;-81
2020/12/21 11:03:41;;;;;;;14.93;2.88;;;8.40;99.90;;;;;;5009218;28;20018;-81
2020/12/21 11:06:07;;;;;;;7.70;3.10;;;8.40;99.90;;;;;;5019964;28;20099;-80
2020/12/21 11:08:32;;;;;;;18.88;3.90;;;8.40;99.90;;;;;;5016111;28;20040;-81
2020/12/21 11:10:58;;;;;;;15.35;3.50;;;8.30;99.90;;;;;;5014168;28;20068;-80
2020/12/21 11:13:23;;;;;;;11.20;2.83;;;8.30;99.90;;;;;;5002122;28;20021;-80
2020/12/21 11:15:49;;;;;;;9.18;3.17;;;8.30;99.90;;;;;;4997322;28;20038;-84
2020/12/21 11:18:15;;;;;;;9.50;2.85;;;8.30;99.90;;;;;;4988481;28;20029;-81
2020/12/21 11:20:40;;;;;;;9.10;2.92;;;8.30;99.90;;;;;;4990300;28;20117;-83
2020/12/21 11:23:06;;;;;;;5.20;2.78;;;8.40;99.90;;;;;;4996010;28;20585;-81
2020/12/21 11:25:32;;;;;;;10.88;2.70;;;8.40;99.90;;;;;;4986944;28;20033;-83
2020/12/21 11:28:00;;;;;;;8.95;2.85;;;8.30;99.90;;;;;;4985570;28;20039;-83
2020/12/21 11:30:25;;;;;;;5.43;2.15;;;8.30;99.90;;;;;;4994748;28;20034;-80
2020/12/21 11:32:51;;;;;;;8.18;2.65;;;8.40;99.90;;;;;;4989657;28;20038;-82
2020/12/21 11:35:17;;;;;;;10.75;2.50;;;8.30;99.90;;;;;;4989918;28;20431;-81
2020/12/21 11:37:42;;;;;;;11.50;2.60;;;8.40;99.90;;;;;;4993274;28;20049;-81
2020/12/21 11:40:08;;;;;;;21.50;3.72;;;8.40;99.90;;;;;;4994341;28;20122;-80
2020/12/21 11:42:33;;;;;;;6.80;2.20;;;8.40;99.90;;;;;;4991655;28;20030;-79
2020/12/21 11:44:59;;;;;;;13.25;2.80;;;8.50;99.90;;;;;;4989103;28;20066;-80
2020/12/21 11:47:25;;;;;;;11.35;2.92;;;8.50;99.90;;;;;;4989056;28;20089;-84
2020/12/21 11:49:50;;;;;;;12.15;2.88;;;8.50;99.90;;;;;;4988193;28;20073;-79
2020/12/21 11:52:16;;;;;;;10.60;3.17;;;8.50;99.90;;;;;;4995320;28;20077;-79
2020/12/21 11:54:42;;;;;;;13.07;3.15;;;8.50;99.90;;;;;;4984563;28;20027;-79
2020/12/21 11:57:07;;;;;;;8.00;2.28;;;8.50;99.90;;;;;;4985623;28;20026;-80
2020/12/21 11:59:33;;;;;;;8.43;2.92;;;8.50;99.90;;;;;;4989247;28;20026;-79
2020/12/21 12:02:00;;;;;;;15.38;3.80;;;8.50;99.90;;;;;;4989893;28;20038;-80
2020/12/21 12:04:26;;;;;;;5.47;2.90;;;8.50;99.90;;;;;;4993345;28;20030;-79
2020/12/21 12:06:55;;;;;;;17.63;3.30;;;8.40;99.90;;;;;;4993258;28;20037;-79
2020/12/21 12:09:26;;;;;;;10.32;2.80;;;8.50;99.90;;;;;;4995922;28;20124;-79
2020/12/21 12:11:52;;;;;;;7.80;2.90;;;8.50;99.90;;;;;;4990217;28;20042;-79
2020/12/21 12:14:18;;;;;;;4.38;2.25;;;8.60;99.90;;;;;;4995942;28;20081;-79
2020/12/21 12:16:44;;;;;;;7.97;3.85;;;8.50;99.90;;;;;;4991199;28;20093;-78
2020/12/21 12:19:09;;;;;;;8.00;2.35;;;8.50;99.90;;;;;;4989965;28;20039;-80
2020/12/21 12:21:35;;;;;;;11.50;2.92;;;8.50;99.90;;;;;;4994621;28;20507;-81
2020/12/21 12:24:01;;;;;;;8.70;2.10;;;8.50;99.90;;;;;;4992484;28;20023;-79
2020/12/21 12:26:26;;;;;;;13.10;3.13;;;8.50;99.90;;;;;;4989497;28;20542;-80
2020/12/21 12:28:56;;;;;;;8.23;2.80;;;8.60;99.90;;;;;;4993008;28;20083;-80
2020/12/21 12:31:22;;;;;;;16.73;2.75;;;8.50;99.90;;;;;;4989050;28;20031;-80
2020/12/21 12:33:49;;;;;;;7.75;2.75;;;8.60;99.90;;;;;;4996289;28;20042;-80
2020/12/21 12:36:23;;;;;;;6.15;2.50;;;8.60;99.90;;;;;;4992434;28;20089;-78
2020/12/21 12:38:49;;;;;;;5.32;2.53;;;8.60;99.90;;;;;;4987858;28;20039;-81
2020/12/21 12:41:15;;;;;;;9.80;2.97;;;8.70;99.90;;;;;;4988091;28;20039;-79
2020/12/21 12:43:41;;;;;;;6.90;2.60;;;8.70;99.90;;;;;;4990951;28;20022;-79
2020/12/21 12:46:08;;;;;;;6.70;2.88;;;8.70;99.90;;;;;;4991360;28;20072;-79
2020/12/21 12:48:34;;;;;;;6.47;2.97;;;8.70;99.90;;;;;;4995855;28;20030;-79
2020/12/21 12:51:01;;;;;;;6.38;2.70;;;8.70;99.90;;;;;;4994192;28;20100;-78